Nearby METAR Reports

 

K27K - Georgetown, Kentucky, USA
Distance from station: NE 1mi, 3km
Updated: Sun, 05-Jul-2020 5:55am EDT
Clear
Clear
 Wind from calm
Wind: Calm
Temperature: 68°F , 20°C
Dew Point: 64°F , 18°C
Humidity: 88%
Barometer: 29.97 inHg , 1014.9 hPa
Clouds: Clear
Visibility: 5 miles , 8 km
2020/07/05 09:55 K27K 050955Z AUTO 00000KT 5SM CLR 20/18 A2997 RMK AO1
KLEX - Lexington, Kentucky, USA
Distance from station: SE 25mi, 38km
Updated: Sun, 05-Jul-2020 4:54am EDT
Mist, Clear
Mist, Clear
 Wind from calm
Wind: Calm
Temperature: 68°F , 20°C
Dew Point: 64°F , 18°C
Humidity: 88%
Barometer: 29.97 inHg , 1014.9 hPa
Summary: Mist
Clouds: Clear
Visibility: 4 miles , 6 km
2020/07/05 08:54 KLEX 050854Z 00000KT 4SM BR CLR 20/18 A2997 RMK AO2 SLP136 T02000183 55002 $
 
KFFT - Frankfort, Kentucky, USA
Distance from station: WNW 24mi, 38km
Updated: Sun, 05-Jul-2020 4:53am EDT
Mist, Clear
Mist, Clear
 Wind from calm
Wind: Calm
Temperature: 68°F , 20°C
Dew Point: 64°F , 18°C
Humidity: 88%
Barometer: 29.95 inHg , 1014.2 hPa
Summary: Mist
Clouds: Clear
Visibility: 4 miles , 6 km
2020/07/05 08:53 KFFT 050853Z AUTO 00000KT 4SM BR CLR 20/18 A2995 RMK AO2 SLP131 T02000183 55000
KIOB - Mount Sterling, Kentucky, USA
Distance from station: E 28mi, 46km
Updated: Sun, 05-Jul-2020 5:35am EDT
Clear
Clear
 Wind from calm
Wind: Calm
Temperature: 64°F , 18°C
Dew Point: 64°F , 18°C
Humidity: 100%
Barometer: 29.99 inHg , 1015.6 hPa
Clouds: Clear
Visibility: 4 miles , 6 km
2020/07/05 09:35 KIOB 050935Z AUTO 00000KT 4SM CLR 18/18 A2999 RMK AO2 PWINO
 
KDVK - Danville, Kentucky, USA
Distance from station: SSW 35mi, 56km
Updated: Sun, 05-Jul-2020 5:10am EDT
Mist, Clear
Mist, Clear
 Wind from calm
Wind: Calm
Temperature: 64°F , 18°C
Dew Point: 64°F , 18°C
Humidity: 100%
Barometer: 29.98 inHg , 1015.2 hPa
Summary: Mist
Clouds: Clear
Visibility: 3 miles , 5 km
2020/07/05 09:10 KDVK 050910Z AUTO 00000KT 3SM BR CLR 18/18 A2998 RMK AO2
K6I2 - Springfield, Kentucky, USA
Distance from station: SW 49mi, 80km
Updated: Sun, 05-Jul-2020 5:25am EDT
Clear
Clear
 Wind from calm
Wind: Calm
Temperature: 68°F , 20°C
Dew Point: 68°F , 20°C
Humidity: 100%
Barometer: 29.96 inHg , 1014.6 hPa
Clouds: Clear
Visibility: 7 miles , 11 km
2020/07/05 09:25 K6I2 050925Z AUTO 00000KT 7SM CLR 20/20 A2996 RMK AO2
 
KSYM - Morehead, Kentucky, USA
Distance from station: ENE 51mi, 83km
Updated: Sun, 05-Jul-2020 5:40am EDT
Mist, Clear
Mist, Clear
 Wind from calm
Wind: Calm
Temperature: 68°F , 20°C
Dew Point: 68°F , 20°C
Humidity: 100%
Barometer: 29.98 inHg , 1015.2 hPa
Summary: Mist
Clouds: Clear
Visibility: 1 1/2 miles , 2.4 km
2020/07/05 09:40 KSYM 050940Z AUTO 00000KT 1 1/2SM BR CLR 20/20 A2998 RMK AO2
KFGX - Flemingsburg, Kentucky, USA
Distance from station: NE 54mi, 87km
Updated: Sun, 05-Jul-2020 5:15am EDT
Clear
Clear
 Wind from calm
Wind: Calm
Temperature: 68°F , 20°C
Dew Point: 68°F , 20°C
Humidity: 100%
Barometer: 29.98 inHg , 1015.2 hPa
Clouds: Clear
Visibility: 7 miles , 11 km
2020/07/05 09:15 KFGX 050915Z AUTO 00000KT 7SM CLR 20/20 A2998 RMK AO2 T02010201
 
KLOU - Louisville/Bowmn, Kentucky, USA
Distance from station: W 64mi, 104km
Updated: Sun, 05-Jul-2020 4:53am EDT
Haze, Clear
Haze, Clear
 Wind from calm
Wind: Calm
Temperature: 73°F , 23°C
Dew Point: 68°F , 20°C
Humidity: 83%
Barometer: 29.94 inHg , 1013.9 hPa
Summary: Haze
Clouds: Clear
Visibility: 4 miles , 6 km
2020/07/05 08:53 KLOU 050853Z AUTO 00000KT 4SM HZ CLR 23/20 A2994 RMK AO2 SLP133 T02280200 53001
KSDF - Louisville, Kentucky, USA
Distance from station: W 68mi, 109km
Updated: Sun, 05-Jul-2020 4:56am EDT
Haze, Clear
Haze, Clear
 Wind from N
Wind: N 3 mph , 6 km/h
Temperature: 75°F , 24°C
Dew Point: 70°F , 21°C
Humidity: 83%
Barometer: 29.94 inHg , 1013.9 hPa
Summary: Haze
Clouds: Clear
Visibility: 5 miles , 8 km
2020/07/05 08:56 KSDF 050856Z 35003KT 5SM HZ CLR 24/21 A2994 RMK AO2 SLP132 T02440211 53003
 
KSME - Somerset, Kentucky, USA
Distance from station: S 69mi, 111km
Updated: Sun, 05-Jul-2020 5:35am EDT
Clear
Clear
 Wind from calm
Wind: Calm
Temperature: 66°F , 19°C
Dew Point: 64°F , 18°C
Humidity: 94%
Barometer: 29.98 inHg , 1015.2 hPa
Clouds: Clear
Visibility: 7 miles , 11 km
2020/07/05 09:35 KSME 050935Z AUTO 00000KT 7SM CLR 19/18 A2998 RMK AO2
KCVG - Covington, Kentucky, USA
Distance from station: N 70mi, 113km
Updated: Sun, 05-Jul-2020 4:52am EDT
Clear
Clear
 Wind from E
Wind: E 3 mph , 6 km/h
Temperature: 75°F , 24°C
Dew Point: 64°F , 18°C
Humidity: 69%
Barometer: 29.96 inHg , 1014.6 hPa
Clouds: Clear
Visibility: 10 miles , 16 km
2020/07/05 08:52 KCVG 050852Z 08003KT 10SM CLR 24/18 A2996 RMK AO2 SLP133 T02440183 58003
 
KLOZ - London, Kentucky, USA
Distance from station: SSE 70mi, 113km
Updated: Sun, 05-Jul-2020 4:53am EDT
Mist, Clear
Mist, Clear
 Wind from calm
Wind: Calm
Temperature: 70°F , 21°C
Dew Point: 66°F , 19°C
Humidity: 88%
Barometer: 29.97 inHg , 1014.9 hPa
Summary: Mist
Clouds: Clear
Visibility: 6 miles , 10 km
2020/07/05 08:53 KLOZ 050853Z AUTO 00000KT 6SM BR CLR 21/19 A2997 RMK AO2 SLP133 T02060194 55003
KJKL - Noctor/Jackson, Kentucky, USA
Distance from station: ESE 72mi, 115km
Updated: Sun, 05-Jul-2020 4:53am EDT
Clear
Clear
 Wind from calm
Wind: Calm
Temperature: 73°F , 23°C
Dew Point: 70°F , 21°C
Humidity: 89%
Barometer: 29.98 inHg , 1015.2 hPa
Clouds: Clear
Visibility: 7 miles , 11 km
2020/07/05 08:53 KJKL 050853Z AUTO 00000KT 7SM CLR 23/21 A2998 RMK AO2 SLP133 T02280206 55003
 
KIMS - Madison, Indiana, USA
Distance from station: NW 72mi, 116km
Updated: Sun, 05-Jul-2020 5:35am EDT
Clear
Clear
 Wind from NNE
Wind: NNE 3 mph , 6 km/h
Temperature: 70°F , 21°C
Dew Point: 70°F , 21°C
Humidity: 100%
Barometer: 29.98 inHg , 1015.2 hPa
Clouds: Clear
Visibility: 7 miles , 11 km
2020/07/05 09:35 KIMS 050935Z AUTO 03003KT 7SM CLR 21/21 A2998 RMK AO1
KLUK - Cincinnat/Lunken, Ohio, USA
Distance from station: N 73mi, 118km
Updated: Sun, 05-Jul-2020 4:53am EDT
Mist, Clear
Mist, Clear
 Wind from calm
Wind: Calm
Temperature: 70°F , 21°C
Dew Point: 66°F , 19°C
Humidity: 88%
Barometer: 29.96 inHg , 1014.6 hPa
Summary: Mist
Clouds: Clear
Visibility: 3 miles , 5 km
2020/07/05 08:53 KLUK 050853Z AUTO 00000KT 3SM R21L/1400VP6000FT BR CLR 21/19 A2996 RMK AO2 SLP140 T02060194 55003
 
KI69 - Batavia, Ohio, USA
Distance from station: NNE 74mi, 119km
Updated: Sun, 05-Jul-2020 5:35am EDT
Clear
Clear
 Wind from calm
Wind: Calm
Temperature: 70°F , 21°C
Dew Point: 66°F , 19°C
Humidity: 88%
Barometer: 29.98 inHg , 1015.2 hPa
Clouds: Clear
Visibility: 10 miles , 16 km
2020/07/05 09:35 KI69 050935Z AUTO 00000KT 10SM CLR 21/19 A2998 RMK AO2 T02090192